Willet, New York
Current Conditions -  °F | °C
As of 2:55 PM on Wednesday 17 Dec 2014 (Local Time) from KN03 Reporting Station
Light Snow Light Snow  
Wind Chill: 27°   Ceiling: 1600
Heat Index: 34°   Visibility: 5mi
Dew Point: 34°   Wind: 8mph
Humidity: 100%   Direction: 260°W
Pressure: 29.86"   Gusts: 18mph
Location:  42.47°N, 75.91°W
Report Text: KN03 171955Z AUTO 26007G16KT 5SM -SN SCT010 BKN016 OVC050 01/01 A2986 RMK AO2
Loading
Personal Weather Stations






























Interactive Weather Map New forecast layout! Learn more

10-Day Weather Forecast

Advertisements
Track Severe Weather on mobile